sensor_id;sensor_type;location;lat;lon;timestamp;noise_LAeq;noise_LA_min;noise_LA_max;noise_LA01;noise_LA95
69668;Laerm;56896;52.120;5.192;2022-10-04T00:00:09;42.74;40.70;54.16;;
69668;Laerm;56896;52.120;5.192;2022-10-04T00:00:40;53.27;40.42;79.37;;
69668;Laerm;56896;52.120;5.192;2022-10-04T00:01:11;42.52;40.50;49.04;;
69668;Laerm;56896;52.120;5.192;2022-10-04T00:02:44;42.10;40.26;53.70;;
69668;Laerm;56896;52.120;5.192;2022-10-04T00:03:26;56.38;40.55;70.99;;
69668;Laerm;56896;52.120;5.192;2022-10-04T00:04:10;54.86;39.90;70.03;;
69668;Laerm;56896;52.120;5.192;2022-10-04T00:04:43;41.65;39.24;49.61;;
69668;Laerm;56896;52.120;5.192;2022-10-04T00:05:16;41.62;39.57;51.88;;
69668;Laerm;56896;52.120;5.192;2022-10-04T00:05:51;42.24;39.71;57.28;;
69668;Laerm;56896;52.120;5.192;2022-10-04T00:06:23;41.80;39.54;55.15;;
69668;Laerm;56896;52.120;5.192;2022-10-04T00:07:02;41.60;39.85;43.26;;
69668;Laerm;56896;52.120;5.192;2022-10-04T00:07:37;41.96;40.03;53.73;;
69668;Laerm;56896;52.120;5.192;2022-10-04T00:08:57;41.82;39.61;49.34;;
69668;Laerm;56896;52.120;5.192;2022-10-04T00:09:07;41.73;39.70;45.46;;
69668;Laerm;56896;52.120;5.192;2022-10-04T00:09:42;42.09;39.81;56.91;;
69668;Laerm;56896;52.120;5.192;2022-10-04T00:10:44;42.18;39.87;53.01;;
69668;Laerm;56896;52.120;5.192;2022-10-04T00:11:17;41.59;39.69;45.42;;
69668;Laerm;56896;52.120;5.192;2022-10-04T00:11:49;42.13;40.18;55.39;;
69668;Laerm;56896;52.120;5.192;2022-10-04T00:12:22;42.03;40.28;44.03;;
69668;Laerm;56896;52.120;5.192;2022-10-04T00:13:01;42.17;40.24;44.30;;
69668;Laerm;56896;52.120;5.192;2022-10-04T00:13:33;42.30;40.20;47.17;;
69668;Laerm;56896;52.120;5.192;2022-10-04T00:14:05;42.92;40.68;58.12;;
69668;Laerm;56896;52.120;5.192;2022-10-04T00:14:36;42.40;40.61;47.78;;
69668;Laerm;56896;52.120;5.192;2022-10-04T00:15:20;42.23;40.31;55.25;;
69668;Laerm;56896;52.120;5.192;2022-10-04T00:15:52;42.20;40.42;47.18;;
69668;Laerm;56896;52.120;5.192;2022-10-04T00:16:27;41.98;39.64;45.23;;
69668;Laerm;56896;52.120;5.192;2022-10-04T00:17:06;41.77;39.76;53.49;;
69668;Laerm;56896;52.120;5.192;2022-10-04T00:17:37;41.68;39.64;47.37;;
69668;Laerm;56896;52.120;5.192;2022-10-04T00:18:43;41.57;39.47;43.35;;
69668;Laerm;56896;52.120;5.192;2022-10-04T00:19:45;41.82;39.51;50.67;;
69668;Laerm;56896;52.120;5.192;2022-10-04T00:21:05;41.74;40.02;45.33;;
69668;Laerm;56896;52.120;5.192;2022-10-04T00:22:18;41.89;40.04;43.73;;
69668;Laerm;56896;52.120;5.192;2022-10-04T00:22:30;41.74;39.72;46.99;;
69668;Laerm;56896;52.120;5.192;2022-10-04T00:23:43;41.79;39.76;45.55;;
69668;Laerm;56896;52.120;5.192;2022-10-04T00:23:54;41.87;39.85;51.85;;
69668;Laerm;56896;52.120;5.192;2022-10-04T00:24:59;41.85;39.80;47.74;;
69668;Laerm;56896;52.120;5.192;2022-10-04T00:25:32;42.46;39.76;64.70;;
69668;Laerm;56896;52.120;5.192;2022-10-04T00:26:04;42.10;39.92;47.80;;
69668;Laerm;56896;52.120;5.192;2022-10-04T00:28:13;42.24;39.72;55.04;;
69668;Laerm;56896;52.120;5.192;2022-10-04T00:28:44;41.79;39.73;50.29;;
69668;Laerm;56896;52.120;5.192;2022-10-04T00:30:35;41.95;39.90;48.08;;
69668;Laerm;56896;52.120;5.192;2022-10-04T00:33:11;42.47;40.54;52.08;;
69668;Laerm;56896;52.120;5.192;2022-10-04T00:35:03;42.23;40.17;52.14;;
69668;Laerm;56896;52.120;5.192;2022-10-04T00:35:53;44.24;40.11;66.66;;
69668;Laerm;56896;52.120;5.192;2022-10-04T00:36:54;42.04;39.78;46.31;;
69668;Laerm;56896;52.120;5.192;2022-10-04T00:37:25;41.95;39.84;56.25;;
69668;Laerm;56896;52.120;5.192;2022-10-04T00:38:27;41.93;39.70;52.39;;
69668;Laerm;56896;52.120;5.192;2022-10-04T00:40:15;42.20;40.36;46.99;;
69668;Laerm;56896;52.120;5.192;2022-10-04T00:42:44;42.00;40.16;48.73;;
69668;Laerm;56896;52.120;5.192;2022-10-04T00:43:47;41.85;39.76;43.81;;
69668;Laerm;56896;52.120;5.192;2022-10-04T00:44:58;41.85;39.96;55.70;;
69668;Laerm;56896;52.120;5.192;2022-10-04T00:45:32;41.54;39.17;53.57;;
69668;Laerm;56896;52.120;5.192;2022-10-04T00:46:10;41.34;39.63;48.16;;
69668;Laerm;56896;52.120;5.192;2022-10-04T00:46:42;41.91;39.83;50.86;;
69668;Laerm;56896;52.120;5.192;2022-10-04T00:48:03;42.72;39.65;67.50;;
69668;Laerm;56896;52.120;5.192;2022-10-04T00:48:36;41.76;39.53;50.70;;
69668;Laerm;56896;52.120;5.192;2022-10-04T00:49:10;41.71;39.72;54.81;;
69668;Laerm;56896;52.120;5.192;2022-10-04T00:49:42;41.94;39.67;60.04;;
69668;Laerm;56896;52.120;5.192;2022-10-04T00:50:52;41.53;39.77;45.75;;
69668;Laerm;56896;52.120;5.192;2022-10-04T00:51:29;41.51;39.60;45.14;;
69668;Laerm;56896;52.120;5.192;2022-10-04T00:52:02;42.49;40.10;59.16;;
69668;Laerm;56896;52.120;5.192;2022-10-04T00:52:39;42.27;40.03;52.61;;
69668;Laerm;56896;52.120;5.192;2022-10-04T00:53:11;42.02;39.86;50.09;;
69668;Laerm;56896;52.120;5.192;2022-10-04T00:54:20;41.70;39.61;45.51;;
69668;Laerm;56896;52.120;5.192;2022-10-04T00:54:54;41.67;39.76;44.88;;
69668;Laerm;56896;52.120;5.192;2022-10-04T00:55:36;41.91;40.07;48.59;;
69668;Laerm;56896;52.120;5.192;2022-10-04T00:56:10;41.87;40.16;44.06;;
69668;Laerm;56896;52.120;5.192;2022-10-04T00:56:43;42.01;39.89;45.18;;
69668;Laerm;56896;52.120;5.192;2022-10-04T00:57:21;42.12;40.30;51.50;;
69668;Laerm;56896;52.120;5.192;2022-10-04T00:57:55;42.30;40.18;59.12;;
69668;Laerm;56896;52.120;5.192;2022-10-04T00:58:30;42.06;40.33;45.04;;
69668;Laerm;56896;52.120;5.192;2022-10-04T00:59:05;42.49;39.83;58.87;;
69668;Laerm;56896;52.120;5.192;2022-10-04T00:59:40;41.66;39.70;47.40;;
69668;Laerm;56896;52.120;5.192;2022-10-04T01:00:13;41.62;39.73;43.64;;
69668;Laerm;56896;52.120;5.192;2022-10-04T01:00:44;41.64;39.59;50.31;;
69668;Laerm;56896;52.120;5.192;2022-10-04T01:01:18;41.46;38.90;44.74;;
69668;Laerm;56896;52.120;5.192;2022-10-04T01:01:57;41.46;39.61;48.27;;
69668;Laerm;56896;52.120;5.192;2022-10-04T01:02:36;41.63;39.57;51.84;;
69668;Laerm;56896;52.120;5.192;2022-10-04T01:03:11;41.58;39.60;43.94;;
69668;Laerm;56896;52.120;5.192;2022-10-04T01:03:44;41.77;39.65;54.83;;
69668;Laerm;56896;52.120;5.192;2022-10-04T01:05:04;41.54;39.43;48.18;;
69668;Laerm;56896;52.120;5.192;2022-10-04T01:05:38;41.93;39.83;53.18;;
69668;Laerm;56896;52.120;5.192;2022-10-04T01:06:10;41.66;39.89;45.53;;
69668;Laerm;56896;52.120;5.192;2022-10-04T01:06:42;42.11;39.69;59.35;;
69668;Laerm;56896;52.120;5.192;2022-10-04T01:07:14;42.04;40.07;44.01;;
69668;Laerm;56896;52.120;5.192;2022-10-04T01:07:47;41.75;39.50;43.62;;
69668;Laerm;56896;52.120;5.192;2022-10-04T01:08:23;42.07;40.02;50.19;;
69668;Laerm;56896;52.120;5.192;2022-10-04T01:08:56;41.86;40.06;47.35;;
69668;Laerm;56896;52.120;5.192;2022-10-04T01:09:31;41.84;39.77;46.36;;
69668;Laerm;56896;52.120;5.192;2022-10-04T01:10:07;42.65;40.08;58.08;;
69668;Laerm;56896;52.120;5.192;2022-10-04T01:10:46;42.16;39.76;59.67;;
69668;Laerm;56896;52.120;5.192;2022-10-04T01:11:34;42.12;39.67;54.58;;
69668;Laerm;56896;52.120;5.192;2022-10-04T01:12:08;41.96;39.59;46.03;;
69668;Laerm;56896;52.120;5.192;2022-10-04T01:12:44;41.89;40.13;43.52;;
69668;Laerm;56896;52.120;5.192;2022-10-04T01:13:19;42.18;40.22;49.83;;
69668;Laerm;56896;52.120;5.192;2022-10-04T01:13:52;42.78;40.08;59.30;;
69668;Laerm;56896;52.120;5.192;2022-10-04T01:14:32;42.21;40.23;52.88;;
69668;Laerm;56896;52.120;5.192;2022-10-04T01:16:02;42.15;39.80;51.01;;
69668;Laerm;56896;52.120;5.192;2022-10-04T01:16:34;42.24;40.09;50.37;;
69668;Laerm;56896;52.120;5.192;2022-10-04T01:17:08;42.31;40.52;44.97;;
69668;Laerm;56896;52.120;5.192;2022-10-04T01:17:39;42.24;40.53;48.38;;
69668;Laerm;56896;52.120;5.192;2022-10-04T01:18:26;42.83;40.76;54.25;;
69668;Laerm;56896;52.120;5.192;2022-10-04T01:19:50;43.11;40.23;62.96;;
69668;Laerm;56896;52.120;5.192;2022-10-04T01:21:06;54.49;39.82;80.76;;
69668;Laerm;56896;52.120;5.192;2022-10-04T01:22:56;42.64;40.25;61.57;;
69668;Laerm;56896;52.120;5.192;2022-10-04T01:24:20;43.85;40.22;66.26;;
69668;Laerm;56896;52.120;5.192;2022-10-04T01:24:51;43.63;40.40;55.27;;
69668;Laerm;56896;52.120;5.192;2022-10-04T01:26:59;45.48;41.98;61.32;;
69668;Laerm;56896;52.120;5.192;2022-10-04T01:28:20;43.94;41.43;58.38;;
69668;Laerm;56896;52.120;5.192;2022-10-04T01:28:57;43.45;40.61;60.60;;
69668;Laerm;56896;52.120;5.192;2022-10-04T01:29:29;43.42;41.29;54.97;;
69668;Laerm;56896;52.120;5.192;2022-10-04T01:30:00;44.23;42.00;49.07;;
69668;Laerm;56896;52.120;5.192;2022-10-04T01:30:31;44.00;41.34;61.20;;
69668;Laerm;56896;52.120;5.192;2022-10-04T01:31:01;42.99;40.69;55.57;;
69668;Laerm;56896;52.120;5.192;2022-10-04T01:31:32;42.92;41.28;53.98;;
69668;Laerm;56896;52.120;5.192;2022-10-04T01:32:03;42.58;40.71;52.48;;
69668;Laerm;56896;52.120;5.192;2022-10-04T01:32:34;42.35;40.73;44.00;;
69668;Laerm;56896;52.120;5.192;2022-10-04T01:33:04;42.87;40.61;55.98;;
69668;Laerm;56896;52.120;5.192;2022-10-04T01:33:36;42.63;40.46;58.72;;
69668;Laerm;56896;52.120;5.192;2022-10-04T01:34:06;44.81;40.43;66.11;;
69668;Laerm;56896;52.120;5.192;2022-10-04T01:34:37;42.19;40.41;45.93;;
69668;Laerm;56896;52.120;5.192;2022-10-04T01:35:10;41.94;39.97;47.31;;
69668;Laerm;56896;52.120;5.192;2022-10-04T01:35:41;42.34;39.75;55.07;;
69668;Laerm;56896;52.120;5.192;2022-10-04T01:36:12;42.68;40.13;58.17;;
69668;Laerm;56896;52.120;5.192;2022-10-04T01:36:43;42.57;40.01;59.23;;
69668;Laerm;56896;52.120;5.192;2022-10-04T01:37:15;42.17;40.09;53.51;;
69668;Laerm;56896;52.120;5.192;2022-10-04T01:37:45;41.88;40.07;50.77;;
69668;Laerm;56896;52.120;5.192;2022-10-04T01:38:15;41.92;40.20;47.02;;
69668;Laerm;56896;52.120;5.192;2022-10-04T01:38:46;42.03;39.93;49.20;;
69668;Laerm;56896;52.120;5.192;2022-10-04T01:39:17;42.31;40.45;45.16;;
69668;Laerm;56896;52.120;5.192;2022-10-04T01:39:48;42.21;39.92;51.85;;
69668;Laerm;56896;52.120;5.192;2022-10-04T01:40:18;43.44;39.67;59.10;;
69668;Laerm;56896;52.120;5.192;2022-10-04T01:40:50;42.30;40.22;60.04;;
69668;Laerm;56896;52.120;5.192;2022-10-04T01:41:24;41.99;39.82;56.95;;
69668;Laerm;56896;52.120;5.192;2022-10-04T01:42:06;42.21;39.74;53.45;;
69668;Laerm;56896;52.120;5.192;2022-10-04T01:42:40;42.12;40.07;49.05;;
69668;Laerm;56896;52.120;5.192;2022-10-04T01:43:15;41.87;40.19;43.57;;
69668;Laerm;56896;52.120;5.192;2022-10-04T01:43:48;42.37;40.16;50.02;;
69668;Laerm;56896;52.120;5.192;2022-10-04T01:44:23;42.29;40.35;50.34;;
69668;Laerm;56896;52.120;5.192;2022-10-04T01:45:00;42.18;40.26;49.83;;
69668;Laerm;56896;52.120;5.192;2022-10-04T01:45:37;42.10;39.64;49.63;;
69668;Laerm;56896;52.120;5.192;2022-10-04T01:46:09;42.09;40.09;52.58;;
69668;Laerm;56896;52.120;5.192;2022-10-04T01:46:42;42.53;40.12;57.67;;
69668;Laerm;56896;52.120;5.192;2022-10-04T01:47:18;41.86;39.96;43.80;;
69668;Laerm;56896;52.120;5.192;2022-10-04T01:47:51;41.96;40.29;44.05;;
69668;Laerm;56896;52.120;5.192;2022-10-04T01:48:23;41.96;40.21;48.30;;
69668;Laerm;56896;52.120;5.192;2022-10-04T01:48:56;42.03;39.47;47.41;;
69668;Laerm;56896;52.120;5.192;2022-10-04T01:49:30;41.67;39.67;46.37;;
69668;Laerm;56896;52.120;5.192;2022-10-04T01:50:02;41.73;39.78;46.58;;
69668;Laerm;56896;52.120;5.192;2022-10-04T01:51:28;41.78;39.75;45.79;;
69668;Laerm;56896;52.120;5.192;2022-10-04T01:52:55;42.39;39.63;60.14;;
69668;Laerm;56896;52.120;5.192;2022-10-04T01:53:31;42.07;39.72;46.37;;
69668;Laerm;56896;52.120;5.192;2022-10-04T01:54:04;42.56;40.25;58.23;;
69668;Laerm;56896;52.120;5.192;2022-10-04T01:54:37;43.08;40.23;59.89;;
69668;Laerm;56896;52.120;5.192;2022-10-04T01:55:14;42.36;39.49;54.62;;
69668;Laerm;56896;52.120;5.192;2022-10-04T01:55:47;41.76;39.67;43.86;;
69668;Laerm;56896;52.120;5.192;2022-10-04T01:56:26;41.74;39.40;46.69;;
69668;Laerm;56896;52.120;5.192;2022-10-04T01:57:01;41.86;39.99;44.81;;
69668;Laerm;56896;52.120;5.192;2022-10-04T01:57:44;42.06;40.18;49.23;;
69668;Laerm;56896;52.120;5.192;2022-10-04T01:58:24;43.14;39.94;64.43;;
69668;Laerm;56896;52.120;5.192;2022-10-04T01:59:00;42.90;39.61;58.20;;
69668;Laerm;56896;52.120;5.192;2022-10-04T02:00:18;42.04;39.85;51.39;;
69668;Laerm;56896;52.120;5.192;2022-10-04T02:00:52;42.00;40.00;46.24;;
69668;Laerm;56896;52.120;5.192;2022-10-04T02:01:25;42.33;40.23;54.67;;
69668;Laerm;56896;52.120;5.192;2022-10-04T02:02:04;43.41;40.50;61.48;;
69668;Laerm;56896;52.120;5.192;2022-10-04T02:02:48;42.02;40.13;48.79;;
69668;Laerm;56896;52.120;5.192;2022-10-04T02:03:22;42.25;39.99;54.28;;
69668;Laerm;56896;52.120;5.192;2022-10-04T02:04:00;42.24;40.13;51.69;;
69668;Laerm;56896;52.120;5.192;2022-10-04T02:04:33;42.08;40.37;50.29;;
69668;Laerm;56896;52.120;5.192;2022-10-04T02:05:07;45.07;39.99;67.51;;
69668;Laerm;56896;52.120;5.192;2022-10-04T02:05:41;41.80;39.45;44.27;;
69668;Laerm;56896;52.120;5.192;2022-10-04T02:06:14;42.09;39.94;56.67;;
69668;Laerm;56896;52.120;5.192;2022-10-04T02:06:45;42.24;40.16;48.23;;
69668;Laerm;56896;52.120;5.192;2022-10-04T02:07:17;42.28;40.23;58.30;;
69668;Laerm;56896;52.120;5.192;2022-10-04T02:07:48;46.37;40.69;60.43;;
69668;Laerm;56896;52.120;5.192;2022-10-04T02:08:24;43.79;40.46;58.22;;
69668;Laerm;56896;52.120;5.192;2022-10-04T02:08:55;42.32;39.94;54.43;;
69668;Laerm;56896;52.120;5.192;2022-10-04T02:09:28;42.20;39.43;54.16;;
69668;Laerm;56896;52.120;5.192;2022-10-04T02:10:02;42.09;39.68;55.71;;
69668;Laerm;56896;52.120;5.192;2022-10-04T02:10:33;42.01;40.03;50.11;;
69668;Laerm;56896;52.120;5.192;2022-10-04T02:11:07;42.25;39.89;51.27;;
69668;Laerm;56896;52.120;5.192;2022-10-04T02:11:37;43.17;40.15;58.75;;
69668;Laerm;56896;52.120;5.192;2022-10-04T02:12:13;43.19;40.29;64.35;;
69668;Laerm;56896;52.120;5.192;2022-10-04T02:12:46;42.36;40.39;49.17;;
69668;Laerm;56896;52.120;5.192;2022-10-04T02:13:17;42.54;40.51;46.95;;
69668;Laerm;56896;52.120;5.192;2022-10-04T02:13:49;43.32;40.52;60.97;;
69668;Laerm;56896;52.120;5.192;2022-10-04T02:14:21;42.74;40.83;52.26;;
69668;Laerm;56896;52.120;5.192;2022-10-04T02:14:52;42.60;40.26;54.12;;
69668;Laerm;56896;52.120;5.192;2022-10-04T02:15:24;42.67;40.46;56.66;;
69668;Laerm;56896;52.120;5.192;2022-10-04T02:16:41;42.55;40.44;55.66;;
69668;Laerm;56896;52.120;5.192;2022-10-04T02:17:13;42.32;40.43;46.70;;
69668;Laerm;56896;52.120;5.192;2022-10-04T02:17:54;42.30;40.35;47.04;;
69668;Laerm;56896;52.120;5.192;2022-10-04T02:19:59;41.96;39.99;43.83;;
69668;Laerm;56896;52.120;5.192;2022-10-04T02:20:30;42.71;39.93;59.43;;
69668;Laerm;56896;52.120;5.192;2022-10-04T02:21:01;42.21;40.13;51.72;;
69668;Laerm;56896;52.120;5.192;2022-10-04T02:21:34;41.70;39.64;43.67;;
69668;Laerm;56896;52.120;5.192;2022-10-04T02:22:06;42.03;39.87;51.63;;
69668;Laerm;56896;52.120;5.192;2022-10-04T02:22:38;43.13;39.54;60.48;;
69668;Laerm;56896;52.120;5.192;2022-10-04T02:23:09;42.36;39.89;52.99;;
69668;Laerm;56896;52.120;5.192;2022-10-04T02:23:40;43.64;40.15;60.16;;
69668;Laerm;56896;52.120;5.192;2022-10-04T02:24:11;42.21;40.10;57.34;;
69668;Laerm;56896;52.120;5.192;2022-10-04T02:24:43;42.30;40.06;54.94;;
69668;Laerm;56896;52.120;5.192;2022-10-04T02:25:14;42.78;40.07;61.21;;
69668;Laerm;56896;52.120;5.192;2022-10-04T02:25:47;42.37;40.73;47.60;;
69668;Laerm;56896;52.120;5.192;2022-10-04T02:27:03;42.77;40.82;50.08;;
69668;Laerm;56896;52.120;5.192;2022-10-04T02:27:51;42.42;40.10;56.72;;
69668;Laerm;56896;52.120;5.192;2022-10-04T02:28:22;42.85;40.49;58.53;;
69668;Laerm;56896;52.120;5.192;2022-10-04T02:29:39;42.95;40.44;61.14;;
69668;Laerm;56896;52.120;5.192;2022-10-04T02:30:10;42.57;40.77;53.59;;
69668;Laerm;56896;52.120;5.192;2022-10-04T02:30:42;42.62;40.07;55.03;;
69668;Laerm;56896;52.120;5.192;2022-10-04T02:31:13;48.33;40.30;73.07;;
69668;Laerm;56896;52.120;5.192;2022-10-04T02:32:03;43.69;40.13;63.98;;
69668;Laerm;56896;52.120;5.192;2022-10-04T02:32:53;42.48;39.95;54.44;;
69668;Laerm;56896;52.120;5.192;2022-10-04T02:33:28;41.80;39.59;44.30;;
69668;Laerm;56896;52.120;5.192;2022-10-04T02:33:59;43.08;39.47;64.13;;
69668;Laerm;56896;52.120;5.192;2022-10-04T02:34:29;42.03;40.28;48.37;;
69668;Laerm;56896;52.120;5.192;2022-10-04T02:35:00;42.32;39.72;57.72;;
69668;Laerm;56896;52.120;5.192;2022-10-04T02:35:53;42.03;40.00;48.03;;
69668;Laerm;56896;52.120;5.192;2022-10-04T02:36:25;42.40;40.02;58.35;;
69668;Laerm;56896;52.120;5.192;2022-10-04T02:36:56;42.30;40.18;44.48;;
69668;Laerm;56896;52.120;5.192;2022-10-04T02:37:26;42.27;40.55;44.27;;
69668;Laerm;56896;52.120;5.192;2022-10-04T02:38:00;42.07;40.23;43.95;;
69668;Laerm;56896;52.120;5.192;2022-10-04T02:38:33;42.53;39.69;52.11;;
69668;Laerm;56896;52.120;5.192;2022-10-04T02:40:12;42.47;40.50;49.87;;
69668;Laerm;56896;52.120;5.192;2022-10-04T02:41:35;42.65;40.42;57.78;;
69668;Laerm;56896;52.120;5.192;2022-10-04T02:43:00;53.04;41.19;67.40;;
69668;Laerm;56896;52.120;5.192;2022-10-04T02:44:29;42.07;40.29;44.01;;
69668;Laerm;56896;52.120;5.192;2022-10-04T02:45:07;42.29;40.07;50.03;;
69668;Laerm;56896;52.120;5.192;2022-10-04T02:45:51;42.45;39.96;57.68;;
69668;Laerm;56896;52.120;5.192;2022-10-04T02:46:28;42.12;40.23;48.33;;
69668;Laerm;56896;52.120;5.192;2022-10-04T02:47:54;42.74;40.48;54.03;;
69668;Laerm;56896;52.120;5.192;2022-10-04T02:48:40;43.10;40.32;63.40;;
69668;Laerm;56896;52.120;5.192;2022-10-04T02:49:59;42.46;40.28;48.24;;
69668;Laerm;56896;52.120;5.192;2022-10-04T02:51:17;42.91;40.03;55.64;;
69668;Laerm;56896;52.120;5.192;2022-10-04T02:51:50;42.56;40.65;48.50;;
69668;Laerm;56896;52.120;5.192;2022-10-04T02:52:26;42.33;40.45;47.34;;
69668;Laerm;56896;52.120;5.192;2022-10-04T02:53:20;42.39;40.46;46.89;;
69668;Laerm;56896;52.120;5.192;2022-10-04T02:53:59;42.68;40.67;45.70;;
69668;Laerm;56896;52.120;5.192;2022-10-04T02:55:17;42.52;40.19;46.08;;
69668;Laerm;56896;52.120;5.192;2022-10-04T02:55:23;42.76;40.86;54.50;;
69668;Laerm;56896;52.120;5.192;2022-10-04T02:55:55;42.85;41.21;44.75;;
69668;Laerm;56896;52.120;5.192;2022-10-04T02:56:26;42.98;40.59;50.23;;
69668;Laerm;56896;52.120;5.192;2022-10-04T02:56:57;42.98;40.33;54.22;;
69668;Laerm;56896;52.120;5.192;2022-10-04T02:57:29;44.08;41.54;61.54;;
69668;Laerm;56896;52.120;5.192;2022-10-04T02:58:06;42.99;40.57;53.98;;
69668;Laerm;56896;52.120;5.192;2022-10-04T02:58:38;42.48;40.45;44.99;;
69668;Laerm;56896;52.120;5.192;2022-10-04T02:59:13;48.52;40.92;71.42;;
69668;Laerm;56896;52.120;5.192;2022-10-04T02:59:45;42.55;40.60;56.70;;
69668;Laerm;56896;52.120;5.192;2022-10-04T03:01:15;42.56;40.58;48.27;;
69668;Laerm;56896;52.120;5.192;2022-10-04T03:01:56;44.50;41.10;63.48;;
69668;Laerm;56896;52.120;5.192;2022-10-04T03:02:28;42.19;40.10;43.96;;
69668;Laerm;56896;52.120;5.192;2022-10-04T03:03:47;42.79;40.37;55.53;;
69668;Laerm;56896;52.120;5.192;2022-10-04T03:04:19;42.57;40.67;55.41;;
69668;Laerm;56896;52.120;5.192;2022-10-04T03:04:51;42.47;39.40;51.93;;
69668;Laerm;56896;52.120;5.192;2022-10-04T03:05:23;42.33;40.29;46.43;;
69668;Laerm;56896;52.120;5.192;2022-10-04T03:06:00;42.51;40.43;48.90;;
69668;Laerm;56896;52.120;5.192;2022-10-04T03:06:33;42.81;40.66;47.31;;
69668;Laerm;56896;52.120;5.192;2022-10-04T03:07:49;43.20;40.55;53.13;;
69668;Laerm;56896;52.120;5.192;2022-10-04T03:08:21;42.50;40.26;46.15;;
69668;Laerm;56896;52.120;5.192;2022-10-04T03:08:52;42.49;40.47;53.01;;
69668;Laerm;56896;52.120;5.192;2022-10-04T03:09:23;56.25;41.57;67.40;;
69668;Laerm;56896;52.120;5.192;2022-10-04T03:09:54;45.76;40.68;67.10;;
69668;Laerm;56896;52.120;5.192;2022-10-04T03:10:25;42.75;40.71;49.26;;
69668;Laerm;56896;52.120;5.192;2022-10-04T03:10:55;42.59;40.52;46.30;;
69668;Laerm;56896;52.120;5.192;2022-10-04T03:11:29;42.49;40.28;49.19;;
69668;Laerm;56896;52.120;5.192;2022-10-04T03:12:00;43.54;40.07;64.96;;
69668;Laerm;56896;52.120;5.192;2022-10-04T03:12:33;42.15;40.26;45.96;;
69668;Laerm;56896;52.120;5.192;2022-10-04T03:13:04;42.49;40.17;53.67;;
69668;Laerm;56896;52.120;5.192;2022-10-04T03:13:34;43.49;40.68;62.89;;
69668;Laerm;56896;52.120;5.192;2022-10-04T03:14:11;44.36;40.92;65.84;;
69668;Laerm;56896;52.120;5.192;2022-10-04T03:14:43;43.11;41.01;53.92;;
69668;Laerm;56896;52.120;5.192;2022-10-04T03:15:14;42.72;40.77;46.96;;
69668;Laerm;56896;52.120;5.192;2022-10-04T03:15:45;42.60;40.52;53.12;;
69668;Laerm;56896;52.120;5.192;2022-10-04T03:16:16;42.58;40.48;45.57;;
69668;Laerm;56896;52.120;5.192;2022-10-04T03:16:48;42.86;40.48;61.97;;
69668;Laerm;56896;52.120;5.192;2022-10-04T03:17:34;42.79;40.32;61.29;;
69668;Laerm;56896;52.120;5.192;2022-10-04T03:18:05;42.60;40.52;48.25;;
69668;Laerm;56896;52.120;5.192;2022-10-04T03:18:35;42.25;40.53;46.57;;
69668;Laerm;56896;52.120;5.192;2022-10-04T03:19:06;42.49;40.10;54.27;;
69668;Laerm;56896;52.120;5.192;2022-10-04T03:19:38;42.49;40.22;48.41;;
69668;Laerm;56896;52.120;5.192;2022-10-04T03:20:09;42.46;40.38;49.19;;
69668;Laerm;56896;52.120;5.192;2022-10-04T03:20:43;42.65;40.50;53.07;;
69668;Laerm;56896;52.120;5.192;2022-10-04T03:21:15;42.31;40.40;47.54;;
69668;Laerm;56896;52.120;5.192;2022-10-04T03:21:48;42.98;40.55;57.35;;
69668;Laerm;56896;52.120;5.192;2022-10-04T03:22:21;42.64;40.62;49.97;;
69668;Laerm;56896;52.120;5.192;2022-10-04T03:23:00;42.72;40.55;54.38;;
69668;Laerm;56896;52.120;5.192;2022-10-04T03:23:31;43.00;40.38;59.91;;
69668;Laerm;56896;52.120;5.192;2022-10-04T03:24:02;42.44;40.64;47.40;;
69668;Laerm;56896;52.120;5.192;2022-10-04T03:24:44;42.68;40.62;54.64;;
69668;Laerm;56896;52.120;5.192;2022-10-04T03:26:51;43.62;40.57;58.96;;
69668;Laerm;56896;52.120;5.192;2022-10-04T03:27:30;42.46;40.67;48.17;;
69668;Laerm;56896;52.120;5.192;2022-10-04T03:28:03;44.02;40.58;52.47;;
69668;Laerm;56896;52.120;5.192;2022-10-04T03:28:34;43.15;40.55;50.51;;
69668;Laerm;56896;52.120;5.192;2022-10-04T03:29:06;42.56;40.04;46.97;;
69668;Laerm;56896;52.120;5.192;2022-10-04T03:29:39;43.00;40.71;54.17;;
69668;Laerm;56896;52.120;5.192;2022-10-04T03:30:13;43.35;40.43;50.51;;
69668;Laerm;56896;52.120;5.192;2022-10-04T03:30:44;44.94;40.69;52.69;;
69668;Laerm;56896;52.120;5.192;2022-10-04T03:31:15;45.09;40.77;56.26;;
69668;Laerm;56896;52.120;5.192;2022-10-04T03:31:47;43.22;40.89;48.31;;
69668;Laerm;56896;52.120;5.192;2022-10-04T03:32:17;44.36;40.58;51.10;;
69668;Laerm;56896;52.120;5.192;2022-10-04T03:32:48;52.57;40.56;69.29;;
69668;Laerm;56896;52.120;5.192;2022-10-04T03:33:20;53.61;40.47;68.22;;
69668;Laerm;56896;52.120;5.192;2022-10-04T03:33:51;54.86;40.86;70.10;;
69668;Laerm;56896;52.120;5.192;2022-10-04T03:34:41;55.12;40.22;70.39;;
69668;Laerm;56896;52.120;5.192;2022-10-04T03:35:32;54.03;40.47;69.72;;
69668;Laerm;56896;52.120;5.192;2022-10-04T03:36:03;53.36;40.71;71.12;;
69668;Laerm;56896;52.120;5.192;2022-10-04T03:36:33;51.37;40.70;70.46;;
69668;Laerm;56896;52.120;5.192;2022-10-04T03:37:08;43.76;40.54;62.09;;
69668;Laerm;56896;52.120;5.192;2022-10-04T03:37:41;44.94;40.87;52.59;;
69668;Laerm;56896;52.120;5.192;2022-10-04T03:38:11;45.82;41.00;53.73;;
69668;Laerm;56896;52.120;5.192;2022-10-04T03:38:42;47.46;41.77;55.24;;
69668;Laerm;56896;52.120;5.192;2022-10-04T03:39:17;48.74;42.70;55.44;;
69668;Laerm;56896;52.120;5.192;2022-10-04T03:39:51;46.84;42.31;56.49;;
69668;Laerm;56896;52.120;5.192;2022-10-04T03:40:26;56.16;41.45;72.26;;
69668;Laerm;56896;52.120;5.192;2022-10-04T03:40:58;44.90;41.53;57.54;;
69668;Laerm;56896;52.120;5.192;2022-10-04T03:41:30;51.10;41.28;70.19;;
69668;Laerm;56896;52.120;5.192;2022-10-04T03:42:12;50.88;41.12;69.83;;
69668;Laerm;56896;52.120;5.192;2022-10-04T03:42:44;47.04;41.36;65.40;;
69668;Laerm;56896;52.120;5.192;2022-10-04T03:43:16;43.04;41.25;44.95;;
69668;Laerm;56896;52.120;5.192;2022-10-04T03:43:47;43.21;40.94;50.74;;
69668;Laerm;56896;52.120;5.192;2022-10-04T03:44:19;43.24;41.25;45.02;;
69668;Laerm;56896;52.120;5.192;2022-10-04T03:44:51;54.09;41.11;71.61;;
69668;Laerm;56896;52.120;5.192;2022-10-04T03:45:23;56.60;41.48;74.87;;
69668;Laerm;56896;52.120;5.192;2022-10-04T03:45:54;44.88;40.96;55.87;;
69668;Laerm;56896;52.120;5.192;2022-10-04T03:46:25;43.97;41.20;59.09;;
69668;Laerm;56896;52.120;5.192;2022-10-04T03:46:57;56.01;40.93;71.07;;
69668;Laerm;56896;52.120;5.192;2022-10-04T03:47:29;50.49;41.33;64.81;;
69668;Laerm;56896;52.120;5.192;2022-10-04T03:48:04;43.63;41.29;53.03;;
69668;Laerm;56896;52.120;5.192;2022-10-04T03:48:37;43.57;41.15;53.18;;
69668;Laerm;56896;52.120;5.192;2022-10-04T03:49:09;43.69;40.66;55.61;;
69668;Laerm;56896;52.120;5.192;2022-10-04T03:49:41;43.55;41.27;55.02;;
69668;Laerm;56896;52.120;5.192;2022-10-04T03:50:18;43.39;41.31;47.25;;
69668;Laerm;56896;52.120;5.192;2022-10-04T03:50:50;43.97;41.69;57.55;;
69668;Laerm;56896;52.120;5.192;2022-10-04T03:51:23;43.96;41.34;53.23;;
69668;Laerm;56896;52.120;5.192;2022-10-04T03:51:54;43.68;41.30;51.33;;
69668;Laerm;56896;52.120;5.192;2022-10-04T03:52:29;45.11;41.65;66.10;;